createdAt,value
2018-10-09T00:01:00.364Z,101390.38
2018-10-09T00:03:27.693Z,101389.77
2018-10-09T00:05:54.972Z,101377.70
2018-10-09T00:08:22.306Z,101372.19
2018-10-09T00:10:49.607Z,101373.91
2018-10-09T00:13:16.979Z,101368.56
2018-10-09T00:15:44.246Z,101359.41
2018-10-09T00:18:11.646Z,101339.55
2018-10-09T00:20:38.992Z,101342.75
2018-10-09T00:23:06.934Z,101341.03
2018-10-09T00:25:34.234Z,101341.31
2018-10-09T00:28:01.479Z,101351.47
2018-10-09T00:30:28.861Z,101358.74
2018-10-09T00:32:56.110Z,101366.45
2018-10-09T00:35:23.410Z,101361.86
2018-10-09T00:37:51.121Z,101359.86
2018-10-09T00:40:18.411Z,101354.70
2018-10-09T00:42:45.779Z,101357.31
2018-10-09T00:45:13.031Z,101349.95
2018-10-09T00:47:40.386Z,101346.83
2018-10-09T00:50:08.037Z,101350.06
2018-10-09T00:52:35.446Z,101346.99
2018-10-09T00:55:03.923Z,101348.08
2018-10-09T00:57:31.283Z,101349.31
2018-10-09T00:59:58.600Z,101362.63
2018-10-09T01:02:25.912Z,101363.46
2018-10-09T01:04:53.234Z,101355.03
2018-10-09T01:07:20.717Z,101349.63
2018-10-09T01:09:48.066Z,101343.95
2018-10-09T01:12:15.369Z,101350.15
2018-10-09T01:14:42.691Z,101347.80
2018-10-09T01:17:10.001Z,101350.91
2018-10-09T01:19:37.310Z,101353.87
2018-10-09T01:22:04.563Z,101354.14
2018-10-09T01:24:31.920Z,101354.47
2018-10-09T01:26:59.202Z,101370.41
2018-10-09T01:29:26.514Z,101373.80
2018-10-09T01:31:53.758Z,101366.09
2018-10-09T01:34:21.128Z,101358.83
2018-10-09T01:36:48.396Z,101359.74
2018-10-09T01:39:15.654Z,101355.66
2018-10-09T01:41:42.971Z,101359.78
2018-10-09T01:44:10.233Z,101373.94
2018-10-09T01:46:37.462Z,101375.52
2018-10-09T01:49:04.857Z,101382.77
2018-10-09T01:51:32.216Z,101380.73
2018-10-09T01:53:59.576Z,101372.94
2018-10-09T01:56:26.888Z,101376.70
2018-10-09T01:58:54.226Z,101384.08
2018-10-09T02:01:21.485Z,101375.20
2018-10-09T02:03:48.779Z,101378.64
2018-10-09T02:06:16.633Z,101376.97
2018-10-09T02:08:43.942Z,101383.64
2018-10-09T02:11:11.283Z,101375.21
2018-10-09T02:13:38.605Z,101375.73
2018-10-09T02:16:06.711Z,101378.59
2018-10-09T02:18:33.948Z,101377.32
2018-10-09T02:21:01.893Z,101369.05
2018-10-09T02:23:29.274Z,101368.68
2018-10-09T02:25:56.554Z,101363.61
2018-10-09T02:28:23.845Z,101366.39
2018-10-09T02:30:51.196Z,101356.21
2018-10-09T02:33:18.471Z,101353.94
2018-10-09T02:35:45.724Z,101350.72
2018-10-09T02:38:12.982Z,101341.86
2018-10-09T02:40:40.239Z,101340.11
2018-10-09T02:43:07.675Z,101329.16
2018-10-09T02:45:35.626Z,101342.84
2018-10-09T02:48:02.878Z,101340.58
2018-10-09T02:50:30.186Z,101344.50
2018-10-09T02:52:57.457Z,101348.67
2018-10-09T02:55:24.975Z,101354.05
2018-10-09T02:57:52.842Z,101360.89
2018-10-09T03:00:20.219Z,101360.39
2018-10-09T03:02:47.638Z,101362.11
2018-10-09T03:05:15.152Z,101365.66
2018-10-09T03:07:42.392Z,101365.25
2018-10-09T03:10:09.882Z,101361.30
2018-10-09T03:12:37.137Z,101364.34
2018-10-09T03:15:05.111Z,101353.39
2018-10-09T03:17:33.122Z,101353.17
2018-10-09T03:20:00.592Z,101345.96
2018-10-09T03:22:27.880Z,101353.46
2018-10-09T03:24:55.161Z,101344.53
2018-10-09T03:27:22.484Z,101351.41
2018-10-09T03:29:49.707Z,101365.17
2018-10-09T03:32:17.010Z,101355.62
2018-10-09T03:34:44.263Z,101355.30
2018-10-09T03:37:11.542Z,101347.86
2018-10-09T03:39:38.951Z,101351.56
2018-10-09T03:42:06.236Z,101342.73
2018-10-09T03:44:33.515Z,101336.22
2018-10-09T03:47:00.772Z,101338.09
2018-10-09T03:49:28.077Z,101339.55
2018-10-09T03:51:55.327Z,101339.38
2018-10-09T03:54:22.630Z,101342.84
2018-10-09T03:56:49.945Z,101330.58
2018-10-09T03:59:17.237Z,101328.83
2018-10-09T04:01:44.548Z,101335.86
2018-10-09T04:04:11.839Z,101341.53
2018-10-09T04:06:39.097Z,101338.64
2018-10-09T04:09:08.760Z,101338.23
2018-10-09T04:11:36.045Z,101333.95
2018-10-09T04:14:03.339Z,101346.77
2018-10-09T04:16:30.625Z,101345.48
2018-10-09T04:18:57.955Z,101348.45
2018-10-09T04:21:25.223Z,101347.96
2018-10-09T04:23:52.485Z,101339.98
2018-10-09T04:26:19.857Z,101348.85
2018-10-09T04:28:47.147Z,101352.98
2018-10-09T04:31:14.438Z,101349.73
2018-10-09T04:33:41.740Z,101361.80
2018-10-09T04:36:09.084Z,101358.66
2018-10-09T04:38:36.595Z,101354.56
2018-10-09T04:41:03.857Z,101368.87
2018-10-09T04:43:31.153Z,101375.56
2018-10-09T04:45:58.433Z,101371.84
2018-10-09T04:48:25.790Z,101363.84
2018-10-09T04:50:53.039Z,101365.27
2018-10-09T04:53:20.399Z,101357.73
2018-10-09T04:55:47.644Z,101360.57
2018-10-09T04:58:15.041Z,101357.20
2018-10-09T05:00:42.352Z,101362.27
2018-10-09T05:03:09.577Z,101355.87
2018-10-09T05:05:36.919Z,101357.83
2018-10-09T05:08:04.170Z,101364.02
2018-10-09T05:10:31.496Z,101366.69
2018-10-09T05:12:58.819Z,101369.59
2018-10-09T05:15:26.073Z,101371.48
2018-10-09T05:17:53.560Z,101374.62
2018-10-09T05:20:20.738Z,101376.11
2018-10-09T05:22:48.049Z,101365.16
2018-10-09T05:25:15.351Z,101358.24
2018-10-09T05:27:42.667Z,101345.75
2018-10-09T05:30:09.957Z,101346.08
2018-10-09T05:32:37.203Z,101346.05
2018-10-09T05:35:04.576Z,101352.00
2018-10-09T05:37:31.918Z,101355.77
2018-10-09T05:39:59.203Z,101352.73
2018-10-09T05:42:26.517Z,101359.66
2018-10-09T05:44:53.820Z,101360.33
2018-10-09T05:47:21.183Z,101368.30
2018-10-09T05:49:48.680Z,101365.16
2018-10-09T05:52:16.041Z,101373.33
2018-10-09T05:54:43.324Z,101373.94
2018-10-09T05:57:10.617Z,101366.30
2018-10-09T05:59:38.121Z,101373.19
2018-10-09T06:02:05.880Z,101384.94
2018-10-09T06:04:33.251Z,101383.63
2018-10-09T06:07:00.573Z,101379.02
2018-10-09T06:09:27.924Z,101373.31
2018-10-09T06:11:55.272Z,101370.16
2018-10-09T06:14:22.591Z,101381.84
2018-10-09T06:16:49.890Z,101395.03
2018-10-09T06:19:17.176Z,101399.67
2018-10-09T06:21:44.454Z,101406.34
2018-10-09T06:24:11.786Z,101406.75
2018-10-09T06:26:39.139Z,101411.76
2018-10-09T06:29:06.515Z,101410.48
2018-10-09T06:31:33.803Z,101406.77
2018-10-09T06:34:01.112Z,101408.57
2018-10-09T06:36:28.450Z,101403.87
2018-10-09T06:38:55.773Z,101402.03
2018-10-09T06:41:23.131Z,101403.64
2018-10-09T06:43:50.441Z,101400.61
2018-10-09T06:46:18.885Z,101399.81
2018-10-09T06:48:47.361Z,101396.89
2018-10-09T06:51:14.679Z,101399.45
2018-10-09T06:53:42.193Z,101411.56
2018-10-09T06:56:09.981Z,101428.92
2018-10-09T06:58:37.267Z,101427.91
2018-10-09T07:01:04.583Z,101426.52
2018-10-09T07:03:31.957Z,101431.63
2018-10-09T07:05:59.263Z,101430.41
2018-10-09T07:08:26.580Z,101438.39
2018-10-09T07:10:53.884Z,101427.77
2018-10-09T07:13:21.342Z,101426.08
2018-10-09T07:15:48.714Z,101432.32
2018-10-09T07:18:16.129Z,101435.53
2018-10-09T07:20:43.398Z,101434.31
2018-10-09T07:23:10.702Z,101432.75
2018-10-09T07:25:38.049Z,101434.06
2018-10-09T07:28:05.428Z,101433.72
2018-10-09T07:30:32.858Z,101435.88
2018-10-09T07:33:00.183Z,101443.81
2018-10-09T07:35:27.560Z,101445.77
2018-10-09T07:37:54.868Z,101444.48
2018-10-09T07:40:22.159Z,101452.20
2018-10-09T07:42:49.475Z,101452.61
2018-10-09T07:45:16.781Z,101455.28
2018-10-09T07:47:44.094Z,101454.70
2018-10-09T07:50:11.507Z,101464.66
2018-10-09T07:52:38.882Z,101462.39
2018-10-09T07:55:06.307Z,101462.53
2018-10-09T07:57:33.693Z,101463.95
2018-10-09T08:00:01.092Z,101457.50
2018-10-09T08:02:28.431Z,101462.75
2018-10-09T08:04:56.068Z,101464.76
2018-10-09T08:07:23.341Z,101461.33
2018-10-09T08:09:50.624Z,101459.49
2018-10-09T08:12:18.065Z,101456.56
2018-10-09T08:14:45.417Z,101459.48
2018-10-09T08:17:12.738Z,101458.81
2018-10-09T08:19:40.117Z,101460.84
2018-10-09T08:22:07.552Z,101460.07
2018-10-09T08:24:34.833Z,101454.78
2018-10-09T08:27:02.196Z,101463.99
2018-10-09T08:29:29.548Z,101464.22
2018-10-09T08:31:56.878Z,101468.69
2018-10-09T08:34:24.222Z,101461.48
2018-10-09T08:36:51.483Z,101460.79
2018-10-09T08:39:18.784Z,101466.61
2018-10-09T08:41:46.118Z,101464.86
2018-10-09T08:44:13.451Z,101471.14
2018-10-09T08:46:40.742Z,101466.31
2018-10-09T08:49:07.996Z,101467.87
2018-10-09T08:51:35.308Z,101465.95
2018-10-09T08:54:02.693Z,101461.72
2018-10-09T08:56:30.072Z,101450.76
2018-10-09T08:58:57.509Z,101464.42
2018-10-09T09:01:24.819Z,101468.18
2018-10-09T09:03:52.124Z,101474.02
2018-10-09T09:06:19.465Z,101474.45
2018-10-09T09:08:46.763Z,101472.41
2018-10-09T09:11:14.113Z,101467.08
2018-10-09T09:13:41.493Z,101470.69
2018-10-09T09:16:08.879Z,101462.34
2018-10-09T09:18:36.239Z,101467.17
2018-10-09T09:21:03.511Z,101470.64
2018-10-09T09:23:31.626Z,101470.41
2018-10-09T09:25:58.880Z,101471.09
2018-10-09T09:28:26.354Z,101470.03
2018-10-09T09:30:53.665Z,101459.06
2018-10-09T09:33:21.017Z,101456.55
2018-10-09T09:35:48.314Z,101459.20
2018-10-09T09:38:15.734Z,101452.40
2018-10-09T09:40:43.117Z,101452.02
2018-10-09T09:43:10.496Z,101448.76
2018-10-09T09:45:37.831Z,101456.48
2018-10-09T09:48:05.547Z,101452.69
2018-10-09T09:50:32.922Z,101450.68
2018-10-09T09:53:00.216Z,101461.70
2018-10-09T09:55:27.506Z,101465.75
2018-10-09T09:57:54.897Z,101464.07
2018-10-09T10:00:27.685Z,101460.06
2018-10-09T10:02:55.097Z,101467.14
2018-10-09T10:05:22.388Z,101462.20
2018-10-09T10:07:49.738Z,101460.34
2018-10-09T10:10:17.058Z,101466.64
2018-10-09T10:12:44.341Z,101461.11
2018-10-09T10:15:11.699Z,101460.09
2018-10-09T10:17:39.017Z,101460.30
2018-10-09T10:20:06.641Z,101452.23
2018-10-09T10:22:33.929Z,101445.43
2018-10-09T10:25:01.262Z,101450.78
2018-10-09T10:27:28.598Z,101446.35
2018-10-09T10:29:55.873Z,101435.05
2018-10-09T10:32:23.177Z,101429.32
2018-10-09T10:34:50.407Z,101435.11
2018-10-09T10:37:17.716Z,101436.28
2018-10-09T10:39:45.036Z,101431.34
2018-10-09T10:42:12.373Z,101434.80
2018-10-09T10:44:39.549Z,101435.72
2018-10-09T10:47:06.806Z,101435.39
2018-10-09T10:49:34.182Z,101441.08
2018-10-09T10:52:01.391Z,101433.91
2018-10-09T10:54:28.721Z,101427.28
2018-10-09T10:56:56.061Z,101424.75
2018-10-09T10:59:23.323Z,101421.27
2018-10-09T11:01:50.690Z,101421.27
2018-10-09T11:04:17.931Z,101421.29
2018-10-09T11:06:45.275Z,101423.28
2018-10-09T11:09:12.551Z,101419.98
2018-10-09T11:11:39.903Z,101410.83
2018-10-09T11:14:07.274Z,101413.21
2018-10-09T11:16:34.652Z,101416.63
2018-10-09T11:19:01.977Z,101422.08
2018-10-09T11:21:29.339Z,101410.20
2018-10-09T11:23:56.577Z,101406.75
2018-10-09T11:26:23.819Z,101407.73
2018-10-09T11:28:51.107Z,101414.48
2018-10-09T11:31:18.360Z,101406.55
2018-10-09T11:33:45.737Z,101409.29
2018-10-09T11:36:13.017Z,101408.64
2018-10-09T11:38:40.302Z,101410.59
2018-10-09T11:41:07.580Z,101404.73
2018-10-09T11:43:34.920Z,101400.11
2018-10-09T11:46:02.228Z,101395.31
2018-10-09T11:48:29.542Z,101388.22
2018-10-09T11:50:56.860Z,101382.77
2018-10-09T11:53:24.153Z,101392.59
2018-10-09T11:55:51.865Z,101383.38
2018-10-09T11:58:19.198Z,101381.12
2018-10-09T12:00:48.140Z,101379.81
2018-10-09T12:03:15.497Z,101379.31
2018-10-09T12:05:42.787Z,101374.63
2018-10-09T12:08:10.168Z,101373.55
2018-10-09T12:10:37.427Z,101367.44
2018-10-09T12:13:04.702Z,101374.10
2018-10-09T12:15:32.040Z,101365.89
2018-10-09T12:17:59.244Z,101367.98
2018-10-09T12:20:26.549Z,101360.17
2018-10-09T12:22:53.925Z,101368.80
2018-10-09T12:25:21.525Z,101364.81
2018-10-09T12:27:48.791Z,101365.06
2018-10-09T12:30:16.455Z,101360.01
2018-10-09T12:32:43.890Z,101356.44
2018-10-09T12:35:11.174Z,101356.94
2018-10-09T12:37:38.498Z,101351.79
2018-10-09T12:40:05.737Z,101355.23
2018-10-09T12:42:33.115Z,101349.66
2018-10-09T12:45:00.409Z,101347.09
2018-10-09T12:47:27.715Z,101347.80
2018-10-09T12:49:55.020Z,101334.97
2018-10-09T12:52:22.445Z,101336.05
2018-10-09T12:54:49.888Z,101333.84
2018-10-09T12:57:17.608Z,101333.23
2018-10-09T12:59:44.925Z,101333.34
2018-10-09T13:02:12.263Z,101335.96
2018-10-09T13:04:39.632Z,101335.87
2018-10-09T13:07:06.958Z,101331.49
2018-10-09T13:09:34.327Z,101334.69
2018-10-09T13:12:01.593Z,101333.97
2018-10-09T13:14:28.923Z,101324.78
2018-10-09T13:16:56.216Z,101330.83
2018-10-09T13:19:23.568Z,101328.28
2018-10-09T13:21:51.116Z,101327.39
2018-10-09T13:24:18.254Z,101324.07
2018-10-09T13:26:45.597Z,101320.89
2018-10-09T13:29:12.949Z,101331.14
2018-10-09T13:31:40.291Z,101324.08
2018-10-09T13:34:07.598Z,101324.69
2018-10-09T13:36:35.788Z,101325.86
2018-10-09T13:39:04.580Z,101325.08
2018-10-09T13:41:31.987Z,101322.52
2018-10-09T13:43:59.306Z,101322.71
2018-10-09T13:46:26.604Z,101318.84
2018-10-09T13:48:53.894Z,101313.88
2018-10-09T13:51:21.256Z,101313.26
2018-10-09T13:53:48.547Z,101311.14
2018-10-09T13:56:15.912Z,101310.48
2018-10-09T13:58:43.282Z,101306.81
2018-10-09T14:01:10.587Z,101307.64
2018-10-09T14:03:37.933Z,101303.88
2018-10-09T14:06:05.281Z,101306.00
2018-10-09T14:08:32.574Z,101298.31
2018-10-09T14:10:59.842Z,101297.05
2018-10-09T14:13:27.189Z,101293.48
2018-10-09T14:15:54.515Z,101291.05
2018-10-09T14:18:21.843Z,101288.42
2018-10-09T14:20:49.150Z,101288.77
2018-10-09T14:23:16.479Z,101286.00
2018-10-09T14:25:43.721Z,101280.80
2018-10-09T14:28:10.993Z,101277.26
2018-10-09T14:30:38.393Z,101272.16
2018-10-09T14:33:05.739Z,101270.64
2018-10-09T14:35:33.024Z,101269.62
2018-10-09T14:38:00.366Z,101268.25
2018-10-09T14:40:27.637Z,101265.91
2018-10-09T14:42:54.944Z,101262.39
2018-10-09T14:45:22.389Z,101266.05
2018-10-09T14:47:49.746Z,101267.23
2018-10-09T14:50:17.074Z,101263.45
2018-10-09T14:52:44.330Z,101265.70
2018-10-09T14:55:11.769Z,101264.83
2018-10-09T14:57:39.240Z,101269.82
2018-10-09T15:00:07.946Z,101263.87
2018-10-09T15:02:35.258Z,101270.50
2018-10-09T15:05:02.541Z,101282.11
2018-10-09T15:07:29.786Z,101277.77
2018-10-09T15:09:57.063Z,101280.52
2018-10-09T15:12:24.377Z,101279.83
2018-10-09T15:14:51.646Z,101281.41
2018-10-09T15:17:19.080Z,101280.83
2018-10-09T15:19:46.381Z,101286.67
2018-10-09T15:22:13.751Z,101288.52
2018-10-09T15:24:41.155Z,101287.01
2018-10-09T15:27:08.439Z,101290.24
2018-10-09T15:29:35.765Z,101290.24
2018-10-09T15:32:03.169Z,101290.70
2018-10-09T15:34:30.475Z,101288.47
2018-10-09T15:36:57.814Z,101291.77
2018-10-09T15:39:25.159Z,101300.64
2018-10-09T15:41:52.419Z,101302.41
2018-10-09T15:44:19.785Z,101310.03
2018-10-09T15:46:47.102Z,101309.74
2018-10-09T15:49:14.389Z,101313.35
2018-10-09T15:51:41.732Z,101315.17
2018-10-09T15:54:09.021Z,101315.69
2018-10-09T15:56:36.429Z,101312.50
2018-10-09T15:59:03.654Z,101307.86
2018-10-09T16:01:31.055Z,101305.06
2018-10-09T16:03:58.370Z,101311.40
2018-10-09T16:06:25.670Z,101310.99
2018-10-09T16:08:53.010Z,101316.34
2018-10-09T16:11:20.265Z,101309.83
2018-10-09T16:13:47.551Z,101308.44
2018-10-09T16:16:14.850Z,101312.98
2018-10-09T16:18:42.254Z,101302.98
2018-10-09T16:21:09.619Z,101307.04
2018-10-09T16:23:36.859Z,101304.16
2018-10-09T16:26:04.254Z,101305.41
2018-10-09T16:28:31.534Z,101311.86
2018-10-09T16:30:59.200Z,101317.64
2018-10-09T16:33:26.513Z,101316.91
2018-10-09T16:35:53.832Z,101328.12
2018-10-09T16:38:21.311Z,101323.78
2018-10-09T16:40:48.647Z,101323.67
2018-10-09T16:43:16.088Z,101328.44
2018-10-09T16:45:43.340Z,101334.67
2018-10-09T16:48:10.772Z,101330.92
2018-10-09T16:50:38.037Z,101338.69
2018-10-09T16:53:05.605Z,101345.45
2018-10-09T16:55:32.987Z,101339.03
2018-10-09T16:58:00.352Z,101341.17
2018-10-09T17:00:27.690Z,101342.33
2018-10-09T17:02:54.965Z,101345.39
2018-10-09T17:05:22.315Z,101343.49
2018-10-09T17:07:49.632Z,101348.27
2018-10-09T17:10:16.995Z,101351.73
2018-10-09T17:12:44.335Z,101349.89
2018-10-09T17:15:11.744Z,101349.89
2018-10-09T17:17:39.076Z,101352.20
2018-10-09T17:20:06.509Z,101348.09
2018-10-09T17:22:33.868Z,101356.98
2018-10-09T17:25:01.219Z,101350.92
2018-10-09T17:27:28.581Z,101352.05
2018-10-09T17:29:55.950Z,101357.41
2018-10-09T17:32:23.333Z,101357.38
2018-10-09T17:34:50.706Z,101353.69
2018-10-09T17:37:18.053Z,101357.13
2018-10-09T17:39:45.380Z,101360.25
2018-10-09T17:42:12.793Z,101359.50
2018-10-09T17:44:40.066Z,101363.30
2018-10-09T17:47:08.469Z,101357.12
2018-10-09T17:49:36.773Z,101360.73
2018-10-09T17:52:04.096Z,101373.61
2018-10-09T17:54:31.488Z,101368.84
2018-10-09T17:56:58.800Z,101370.28
2018-10-09T17:59:26.328Z,101370.66
2018-10-09T18:01:53.667Z,101378.84
2018-10-09T18:04:21.057Z,101368.55
2018-10-09T18:06:48.423Z,101375.14
2018-10-09T18:09:15.801Z,101371.11
2018-10-09T18:11:43.103Z,101380.84
2018-10-09T18:14:11.102Z,101384.73
2018-10-09T18:16:38.491Z,101383.48
2018-10-09T18:19:06.603Z,101381.32
2018-10-09T18:21:34.759Z,101387.62
2018-10-09T18:24:02.117Z,101386.25
2018-10-09T18:26:29.487Z,101378.33
2018-10-09T18:28:56.783Z,101377.08
2018-10-09T18:31:24.160Z,101373.98
2018-10-09T18:33:51.511Z,101371.59
2018-10-09T18:36:18.799Z,101373.75
2018-10-09T18:38:46.141Z,101374.88
2018-10-09T18:41:13.610Z,101378.08
2018-10-09T18:43:40.888Z,101373.06
2018-10-09T18:46:08.242Z,101379.72
2018-10-09T18:48:35.563Z,101381.42
2018-10-09T18:51:02.888Z,101375.14
2018-10-09T18:53:30.199Z,101377.05
2018-10-09T18:55:57.546Z,101374.83
2018-10-09T18:58:24.919Z,101382.08
2018-10-09T19:00:52.720Z,101377.84
2018-10-09T19:03:20.128Z,101381.09
2018-10-09T19:05:47.423Z,101377.39
2018-10-09T19:08:14.745Z,101377.39
2018-10-09T19:10:42.143Z,101379.11
2018-10-09T19:13:09.458Z,101381.52
2018-10-09T19:15:36.833Z,101379.30
2018-10-09T19:18:04.275Z,101379.30
2018-10-09T19:20:31.696Z,101374.62
2018-10-09T19:22:58.998Z,101375.01
2018-10-09T19:25:26.374Z,101371.98
2018-10-09T19:27:53.773Z,101375.86
2018-10-09T19:30:21.082Z,101387.81
2018-10-09T19:32:48.382Z,101388.12
2018-10-09T19:35:15.739Z,101380.23
2018-10-09T19:37:43.107Z,101385.18
2018-10-09T19:40:10.403Z,101387.84
2018-10-09T19:42:37.777Z,101386.89
2018-10-09T19:45:05.127Z,101384.76
2018-10-09T19:47:34.502Z,101389.02
2018-10-09T19:50:01.835Z,101397.62
2018-10-09T19:52:29.228Z,101396.06
2018-10-09T19:54:56.547Z,101393.07
2018-10-09T19:57:23.875Z,101389.08
2018-10-09T19:59:51.196Z,101384.01
2018-10-09T20:02:18.501Z,101389.17
2018-10-09T20:04:45.854Z,101388.48
2018-10-09T20:07:13.193Z,101393.55
2018-10-09T20:09:40.604Z,101387.38
2018-10-09T20:12:07.941Z,101387.84
2018-10-09T20:14:35.300Z,101389.87
2018-10-09T20:17:02.657Z,101389.50
2018-10-09T20:19:30.047Z,101387.86
2018-10-09T20:21:57.399Z,101389.17
2018-10-09T20:24:24.807Z,101394.56
2018-10-09T20:26:52.074Z,101391.30
2018-10-09T20:29:19.376Z,101392.25
2018-10-09T20:31:46.688Z,101396.84
2018-10-09T20:34:13.978Z,101396.53
2018-10-09T20:36:41.302Z,101399.83
2018-10-09T20:39:08.588Z,101398.11
2018-10-09T20:41:35.862Z,101395.66
2018-10-09T20:44:03.254Z,101402.41
2018-10-09T20:46:30.546Z,101405.63
2018-10-09T20:48:57.927Z,101408.96
2018-10-09T20:51:25.309Z,101406.25
2018-10-09T20:53:52.671Z,101410.88
2018-10-09T20:56:20.093Z,101410.25
2018-10-09T20:58:47.446Z,101406.78
2018-10-09T21:01:14.810Z,101410.61
2018-10-09T21:03:42.161Z,101409.42
2018-10-09T21:06:09.508Z,101408.86
2018-10-09T21:08:36.860Z,101405.67
2018-10-09T21:11:04.251Z,101408.50
2018-10-09T21:13:31.599Z,101405.42
2018-10-09T21:15:58.985Z,101406.34
2018-10-09T21:18:26.429Z,101409.91
2018-10-09T21:20:53.762Z,101411.49
2018-10-09T21:23:21.083Z,101408.06
2018-10-09T21:25:48.373Z,101407.42
2018-10-09T21:28:15.728Z,101404.97
2018-10-09T21:30:43.081Z,101403.13
2018-10-09T21:33:10.431Z,101405.20
2018-10-09T21:35:37.750Z,101407.11
2018-10-09T21:38:05.162Z,101405.20
2018-10-09T21:40:32.570Z,101401.73
2018-10-09T21:42:59.840Z,101402.61
2018-10-09T21:45:27.223Z,101403.75
2018-10-09T21:48:04.682Z,101403.19
2018-10-09T21:50:32.018Z,101404.59
2018-10-09T21:52:59.650Z,101407.67
2018-10-09T21:55:27.556Z,101402.80
2018-10-09T21:57:55.483Z,101400.09
2018-10-09T22:00:22.744Z,101400.45
2018-10-09T22:02:50.090Z,101404.83
2018-10-09T22:05:17.369Z,101403.63
2018-10-09T22:07:44.691Z,101410.50
2018-10-09T22:10:11.955Z,101404.25
2018-10-09T22:12:39.393Z,101406.52
2018-10-09T22:15:06.688Z,101411.88
2018-10-09T22:17:34.068Z,101414.17
2018-10-09T22:20:01.786Z,101410.73
2018-10-09T22:22:29.087Z,101412.39
2018-10-09T22:24:56.446Z,101413.27
2018-10-09T22:27:23.814Z,101413.37
2018-10-09T22:29:51.608Z,101403.89
2018-10-09T22:32:18.939Z,101401.39
2018-10-09T22:34:46.720Z,101399.68
2018-10-09T22:37:14.048Z,101404.09
2018-10-09T22:39:41.393Z,101403.11
2018-10-09T22:42:08.735Z,101396.41
2018-10-09T22:44:36.048Z,101401.65
2018-10-09T22:47:03.342Z,101403.41
2018-10-09T22:49:30.629Z,101396.25
2018-10-09T22:51:57.999Z,101401.83
2018-10-09T22:54:25.274Z,101402.38
2018-10-09T22:56:52.756Z,101397.52
2018-10-09T22:59:20.085Z,101402.89
2018-10-09T23:01:47.390Z,101399.00
2018-10-09T23:04:14.704Z,101405.72
2018-10-09T23:06:42.011Z,101404.48
2018-10-09T23:09:10.615Z,101406.13
2018-10-09T23:11:37.948Z,101405.33
2018-10-09T23:14:05.256Z,101411.00
2018-10-09T23:16:32.622Z,101410.13
2018-10-09T23:18:59.992Z,101406.80
2018-10-09T23:21:27.335Z,101409.21
2018-10-09T23:23:54.636Z,101419.30
2018-10-09T23:26:22.027Z,101418.24
2018-10-09T23:28:49.329Z,101410.68
2018-10-09T23:31:16.774Z,101410.53
2018-10-09T23:33:44.097Z,101416.25
2018-10-09T23:36:11.368Z,101409.19
2018-10-09T23:38:38.707Z,101411.72
2018-10-09T23:41:06.331Z,101402.16
2018-10-09T23:43:33.658Z,101402.51
2018-10-09T23:46:00.982Z,101403.16
2018-10-09T23:48:28.270Z,101407.09
2018-10-09T23:50:55.567Z,101409.20
2018-10-09T23:53:22.939Z,101408.27
2018-10-09T23:55:50.270Z,101408.94
2018-10-09T23:58:17.526Z,101409.59
